createdAt,value
2022-12-23T00:01:02.433Z,2.67
2022-12-23T00:03:32.451Z,3.97
2022-12-23T00:06:03.473Z,3.30
2022-12-23T00:08:31.338Z,6.10
2022-12-23T00:10:59.341Z,4.88
2022-12-23T00:13:45.781Z,2.25
2022-12-23T00:16:15.190Z,5.80
2022-12-23T00:18:43.640Z,6.50
2022-12-23T00:21:15.173Z,3.65
2022-12-23T00:23:46.238Z,4.43
2022-12-23T00:26:25.671Z,5.25
2022-12-23T00:28:57.771Z,6.30
2022-12-23T00:31:26.070Z,5.93
2022-12-23T00:33:54.662Z,4.63
2022-12-23T00:36:49.498Z,4.72
2022-12-23T00:39:45.507Z,4.80
2022-12-23T00:42:32.137Z,7.07
2022-12-23T00:45:16.174Z,5.13
2022-12-23T00:48:06.361Z,3.85
2022-12-23T00:50:37.853Z,6.13
2022-12-23T00:53:06.714Z,6.15
2022-12-23T00:55:34.433Z,5.57
2022-12-23T00:58:02.166Z,8.38
2022-12-23T01:00:48.715Z,4.22
2022-12-23T01:03:35.387Z,5.15
2022-12-23T01:06:04.192Z,9.48
2022-12-23T01:08:31.997Z,4.55
2022-12-23T01:11:07.043Z,4.28
2022-12-23T01:13:35.351Z,5.50
2022-12-23T01:16:15.141Z,3.88
2022-12-23T01:18:45.625Z,6.88
2022-12-23T01:21:13.789Z,3.05
2022-12-23T01:23:41.635Z,4.60
2022-12-23T01:26:09.377Z,4.15
2022-12-23T01:28:37.145Z,3.08
2022-12-23T01:31:06.355Z,4.97
2022-12-23T01:33:34.416Z,7.88
2022-12-23T01:36:09.448Z,5.50
2022-12-23T01:38:37.280Z,3.92
2022-12-23T01:41:05.294Z,5.15
2022-12-23T01:43:46.619Z,1.98
2022-12-23T01:46:15.676Z,3.88
2022-12-23T01:48:49.136Z,3.78
2022-12-23T01:51:20.823Z,2.70
2022-12-23T01:53:53.320Z,7.53
2022-12-23T01:56:41.422Z,2.10
2022-12-23T01:59:32.762Z,3.30
2022-12-23T02:02:19.851Z,2.17
2022-12-23T02:04:49.916Z,2.53
2022-12-23T02:07:37.294Z,2.93
2022-12-23T02:10:07.271Z,1.90
2022-12-23T02:12:53.486Z,4.13
2022-12-23T02:16:18.490Z,4.53
2022-12-23T02:19:17.865Z,3.15
2022-12-23T02:22:11.604Z,1.40
2022-12-23T02:25:07.386Z,2.00
2022-12-23T02:27:50.057Z,1.60
2022-12-23T02:30:35.204Z,1.50
2022-12-23T02:33:14.799Z,4.03
2022-12-23T02:35:52.560Z,1.83
2022-12-23T02:38:34.470Z,2.30
2022-12-23T02:41:17.451Z,1.90
2022-12-23T02:44:10.749Z,3.20
2022-12-23T02:46:46.358Z,5.85
2022-12-23T02:49:30.280Z,2.75
2022-12-23T02:52:02.530Z,1.20
2022-12-23T02:54:34.082Z,4.15
2022-12-23T02:57:05.484Z,3.63
2022-12-23T02:59:47.329Z,4.38
2022-12-23T03:02:15.192Z,3.53
2022-12-23T03:04:43.217Z,3.15
2022-12-23T03:07:33.216Z,3.30
2022-12-23T03:10:16.074Z,7.57
2022-12-23T03:13:01.840Z,2.72
2022-12-23T03:15:38.078Z,3.33
2022-12-23T03:18:18.473Z,3.88
2022-12-23T03:21:09.243Z,1.75
2022-12-23T03:23:55.247Z,4.00
2022-12-23T03:26:40.582Z,1.75
2022-12-23T03:29:14.033Z,4.03
2022-12-23T03:31:42.991Z,4.95
2022-12-23T03:34:20.106Z,3.88
2022-12-23T03:36:54.790Z,3.83
2022-12-23T03:39:26.350Z,3.90
2022-12-23T03:42:00.968Z,4.32
2022-12-23T03:44:32.580Z,3.10
2022-12-23T03:47:09.755Z,3.58
2022-12-23T03:49:46.731Z,1.75
2022-12-23T03:52:21.524Z,2.50
2022-12-23T03:54:56.303Z,2.80
2022-12-23T03:57:34.881Z,1.85
2022-12-23T04:00:02.642Z,3.08
2022-12-23T04:02:50.775Z,3.50
2022-12-23T04:05:21.514Z,3.50
2022-12-23T04:10:35.589Z,2.28
2022-12-23T04:13:03.366Z,3.00
2022-12-23T04:15:31.177Z,2.47
2022-12-23T04:17:59.347Z,2.97
2022-12-23T04:20:26.984Z,3.65
2022-12-23T04:22:54.664Z,2.08
2022-12-23T04:25:22.485Z,2.38
2022-12-23T04:27:50.528Z,0.77
2022-12-23T04:30:18.810Z,1.20
2022-12-23T04:32:46.482Z,3.42
2022-12-23T04:35:14.286Z,1.00
2022-12-23T04:37:42.090Z,0.80
2022-12-23T04:40:09.936Z,2.35
2022-12-23T04:42:37.605Z,1.48
2022-12-23T04:45:05.890Z,1.45
2022-12-23T04:47:33.593Z,1.40
2022-12-23T04:50:01.345Z,1.00
2022-12-23T04:52:29.050Z,1.60
2022-12-23T04:54:56.777Z,1.50
2022-12-23T04:57:24.532Z,0.70
2022-12-23T04:59:52.282Z,3.78
2022-12-23T05:02:20.145Z,1.38
2022-12-23T05:04:47.926Z,1.65
2022-12-23T05:07:15.659Z,2.05
2022-12-23T05:09:43.369Z,2.08
2022-12-23T05:12:11.085Z,0.88
2022-12-23T05:14:38.790Z,1.33
2022-12-23T05:17:08.017Z,1.00
2022-12-23T05:19:35.897Z,2.03
2022-12-23T05:22:03.589Z,3.50
2022-12-23T05:24:31.267Z,3.20
2022-12-23T05:27:00.457Z,1.48
2022-12-23T05:29:28.516Z,1.08
2022-12-23T05:31:56.235Z,0.80
2022-12-23T05:34:24.024Z,1.08
2022-12-23T05:36:51.715Z,2.50
2022-12-23T05:39:19.355Z,0.77
2022-12-23T05:41:47.110Z,2.15
2022-12-23T05:44:14.872Z,1.40
2022-12-23T05:46:42.672Z,1.10
2022-12-23T05:49:10.534Z,3.83
2022-12-23T05:51:38.263Z,1.60
2022-12-23T05:54:06.009Z,1.58
2022-12-23T05:56:33.756Z,3.97
2022-12-23T05:59:01.508Z,2.28
2022-12-23T06:01:29.259Z,4.10
2022-12-23T06:03:57.051Z,3.55
2022-12-23T06:06:25.067Z,6.18
2022-12-23T06:08:59.204Z,2.08
2022-12-23T06:11:28.017Z,5.95
2022-12-23T06:13:55.831Z,1.38
2022-12-23T06:16:23.672Z,3.13
2022-12-23T06:18:56.379Z,3.15
2022-12-23T06:21:25.672Z,2.25
2022-12-23T06:23:53.387Z,7.28
2022-12-23T06:26:21.184Z,1.23
2022-12-23T06:28:49.022Z,4.97
2022-12-23T06:31:17.057Z,2.22
2022-12-23T06:33:44.890Z,3.65
2022-12-23T06:36:12.625Z,7.25
2022-12-23T06:38:40.521Z,2.80
2022-12-23T06:41:08.360Z,6.45
2022-12-23T06:43:36.191Z,14.32
2022-12-23T06:46:04.066Z,3.33
2022-12-23T06:48:31.766Z,5.05
2022-12-23T06:50:59.487Z,5.70
2022-12-23T06:53:27.277Z,7.45
2022-12-23T06:56:01.817Z,9.45
2022-12-23T06:58:29.872Z,12.73
2022-12-23T07:00:57.563Z,7.93
2022-12-23T07:03:46.652Z,12.52
2022-12-23T07:06:19.187Z,10.68
2022-12-23T07:08:46.928Z,9.43
2022-12-23T07:11:17.485Z,7.97
2022-12-23T07:13:53.100Z,6.78
2022-12-23T07:16:20.836Z,9.93
2022-12-23T07:18:48.564Z,9.75
2022-12-23T07:21:26.501Z,8.85
2022-12-23T07:23:56.270Z,7.87
2022-12-23T07:26:24.173Z,8.25
2022-12-23T07:28:51.884Z,8.82
2022-12-23T07:31:19.679Z,9.10
2022-12-23T07:33:47.587Z,11.30
2022-12-23T07:36:15.391Z,8.20
2022-12-23T07:38:43.281Z,14.40
2022-12-23T07:41:14.081Z,10.30
2022-12-23T07:43:41.961Z,13.68
2022-12-23T07:46:10.584Z,11.45
2022-12-23T07:48:41.794Z,8.30
2022-12-23T07:51:10.067Z,11.35
2022-12-23T07:53:38.112Z,8.52
2022-12-23T07:56:06.629Z,8.85
2022-12-23T07:58:34.490Z,12.27
2022-12-23T08:01:05.528Z,12.82
2022-12-23T08:03:33.638Z,13.23
2022-12-23T08:06:09.668Z,10.13
2022-12-23T08:08:41.095Z,11.60
2022-12-23T08:11:12.836Z,8.15
2022-12-23T08:13:42.487Z,11.73
2022-12-23T08:16:11.304Z,11.77
2022-12-23T08:18:44.301Z,9.13
2022-12-23T08:21:19.168Z,11.93
2022-12-23T08:23:51.221Z,17.85
2022-12-23T08:26:27.340Z,11.60
2022-12-23T09:13:22.310Z,3.50
2022-12-23T09:15:54.414Z,4.70
2022-12-23T09:18:22.271Z,6.03
2022-12-23T09:20:49.974Z,8.98
2022-12-23T09:23:17.752Z,5.30
2022-12-23T09:25:45.498Z,5.25
2022-12-23T09:28:13.817Z,4.45
2022-12-23T09:30:45.167Z,3.90
2022-12-23T09:33:22.332Z,7.28
2022-12-23T09:36:04.642Z,5.82
2022-12-23T09:38:37.025Z,4.68
2022-12-23T09:41:29.466Z,5.13
2022-12-23T09:44:23.958Z,8.32
2022-12-23T09:47:05.952Z,7.57
2022-12-23T09:49:34.609Z,5.90
2022-12-23T09:52:05.806Z,9.43
2022-12-23T09:54:46.262Z,5.07
2022-12-23T09:57:36.462Z,4.88
2022-12-23T10:00:18.046Z,6.30
2022-12-23T10:03:00.903Z,6.68
2022-12-23T10:06:31.086Z,7.28
2022-12-23T10:09:05.505Z,9.67
2022-12-23T10:11:45.558Z,8.27
2022-12-23T10:14:32.931Z,7.32
2022-12-23T10:17:26.275Z,9.20
2022-12-23T10:19:59.851Z,5.70
2022-12-23T10:22:43.234Z,6.05
2022-12-23T10:25:43.438Z,3.40
2022-12-23T10:28:12.184Z,15.88
2022-12-23T10:31:11.241Z,5.13
2022-12-23T10:33:52.880Z,5.10
2022-12-23T10:36:47.233Z,4.70
2022-12-23T10:39:38.367Z,5.30
2022-12-23T10:42:29.915Z,7.20
2022-12-23T10:45:10.163Z,5.68
2022-12-23T10:48:14.006Z,7.35
2022-12-23T10:56:10.665Z,2.55
2022-12-23T10:58:55.713Z,3.75
2022-12-23T11:01:34.971Z,3.45
2022-12-23T11:04:34.514Z,4.45
2022-12-23T11:07:43.437Z,5.10
2022-12-23T11:10:17.359Z,4.53
2022-12-23T11:13:00.137Z,3.53
2022-12-23T11:15:42.732Z,6.18
2022-12-23T11:18:13.342Z,8.02
2022-12-23T11:23:31.230Z,4.63
2022-12-23T11:26:08.637Z,2.55
2022-12-23T11:28:46.363Z,4.57
2022-12-23T11:31:14.801Z,6.05
2022-12-23T11:33:58.407Z,6.72
2022-12-23T11:36:31.245Z,7.70
2022-12-23T11:39:17.455Z,9.65
2022-12-23T11:41:51.297Z,7.40
2022-12-23T11:44:29.030Z,12.80
2022-12-23T11:51:06.529Z,10.57
2022-12-23T11:53:44.465Z,9.00
2022-12-23T11:56:16.017Z,10.65
2022-12-23T11:59:15.918Z,13.30
2022-12-23T12:01:57.972Z,10.27
2022-12-23T12:04:27.754Z,11.70
2022-12-23T12:07:01.301Z,10.25
2022-12-23T12:10:25.894Z,8.10
2022-12-23T12:13:57.584Z,7.68
2022-12-23T12:17:38.304Z,10.02
2022-12-23T12:21:01.736Z,6.72
2022-12-23T12:24:19.592Z,9.18
2022-12-23T12:27:00.716Z,14.63
2022-12-23T12:33:23.466Z,9.15
2022-12-23T12:36:21.839Z,8.48
2022-12-23T12:38:53.754Z,6.47
2022-12-23T12:41:45.060Z,7.80
2022-12-23T12:44:26.913Z,10.73
2022-12-23T12:47:28.558Z,7.88
2022-12-23T12:50:02.899Z,6.43
2022-12-23T12:52:41.245Z,11.02
2022-12-23T12:55:37.083Z,13.13
2022-12-23T12:58:21.471Z,8.88
2022-12-23T13:00:58.721Z,12.88
2022-12-23T13:04:05.085Z,9.45
2022-12-23T13:06:36.705Z,10.18
2022-12-23T13:09:29.719Z,10.55
2022-12-23T13:12:43.558Z,10.02
2022-12-23T13:15:47.373Z,12.95
2022-12-23T13:18:38.783Z,12.82
2022-12-23T13:21:43.877Z,11.88
2022-12-23T13:24:56.137Z,10.43
2022-12-23T13:31:31.505Z,11.65
2022-12-23T13:34:37.002Z,15.77
2022-12-23T13:37:32.581Z,17.05
2022-12-23T13:40:15.534Z,7.65
2022-12-23T13:42:57.729Z,13.13
2022-12-23T13:45:34.580Z,16.60
2022-12-23T13:48:36.072Z,13.65
2022-12-23T13:51:16.561Z,13.80
2022-12-23T13:54:04.220Z,17.27
2022-12-23T13:56:45.475Z,14.30
2022-12-23T13:59:17.327Z,13.02
2022-12-23T14:01:50.298Z,9.68
2022-12-23T14:04:56.766Z,18.90
2022-12-23T14:07:39.433Z,12.15
2022-12-23T14:10:20.276Z,12.02
2022-12-23T14:13:09.088Z,17.15
2022-12-23T14:20:31.745Z,12.57
2022-12-23T14:23:34.785Z,18.90
2022-12-23T14:26:58.673Z,12.20
2022-12-23T14:30:18.506Z,11.93
2022-12-23T14:45:48.155Z,13.90
2022-12-23T14:52:47.544Z,20.80
2022-12-23T14:55:52.723Z,16.15
2022-12-23T14:59:46.876Z,16.95
2022-12-23T15:17:04.323Z,20.90
2022-12-23T15:21:10.400Z,16.97
2022-12-23T15:24:24.506Z,22.20
2022-12-23T15:27:25.231Z,15.60
2022-12-23T15:29:51.220Z,19.60
2022-12-23T15:32:25.019Z,10.85
2022-12-23T15:35:01.372Z,9.80
2022-12-23T15:37:30.939Z,9.75
2022-12-23T15:40:12.527Z,11.52
2022-12-23T15:42:52.714Z,21.35
2022-12-23T15:45:23.775Z,20.65
2022-12-23T15:48:20.168Z,18.95
2022-12-23T15:51:49.549Z,17.10
2022-12-23T15:54:30.305Z,12.52
2022-12-23T15:57:02.882Z,13.85
2022-12-23T15:59:39.151Z,12.63
2022-12-23T16:03:00.255Z,16.77
2022-12-23T16:05:57.004Z,19.90
2022-12-23T16:08:48.739Z,14.98
2022-12-23T16:11:41.026Z,19.23
2022-12-23T16:14:30.712Z,11.93
2022-12-23T16:17:38.010Z,21.63
2022-12-23T16:20:47.009Z,16.80
2022-12-23T16:23:39.939Z,16.52
2022-12-23T16:26:36.723Z,17.35
2022-12-23T16:30:03.616Z,13.10
2022-12-23T16:33:03.965Z,11.43
2022-12-23T16:36:06.080Z,7.55
2022-12-23T16:39:22.474Z,14.35
2022-12-23T16:41:56.200Z,18.70
2022-12-23T16:44:24.060Z,11.82
2022-12-23T16:46:52.412Z,11.40
2022-12-23T16:49:40.238Z,14.25
2022-12-23T16:52:12.877Z,8.73
2022-12-23T16:54:42.649Z,12.52
2022-12-23T16:57:13.249Z,15.68
2022-12-23T16:59:49.488Z,14.43
2022-12-23T17:02:24.802Z,10.50
2022-12-23T17:04:52.649Z,15.52
2022-12-23T17:07:26.470Z,18.88
2022-12-23T17:09:56.053Z,18.65
2022-12-23T17:12:23.782Z,17.23
2022-12-23T17:14:59.855Z,19.38
2022-12-23T17:17:28.016Z,20.30
2022-12-23T17:19:57.657Z,13.77
2022-12-23T17:22:27.311Z,13.50
2022-12-23T17:24:57.848Z,18.07
2022-12-23T17:27:28.507Z,16.98
2022-12-23T17:32:28.644Z,33.25
2022-12-23T17:34:56.503Z,19.40
2022-12-23T17:37:25.006Z,29.60
2022-12-23T17:42:46.082Z,20.77
2022-12-23T17:45:32.932Z,21.42
2022-12-23T17:48:04.733Z,27.50
2022-12-23T17:50:45.558Z,19.13
2022-12-23T17:53:37.969Z,20.85
2022-12-23T17:56:19.747Z,22.48
2022-12-23T17:58:49.776Z,18.33
2022-12-23T18:01:32.979Z,29.33
2022-12-23T18:04:14.514Z,22.23
2022-12-23T18:06:42.536Z,24.52
2022-12-23T18:09:12.659Z,23.88
2022-12-23T18:11:47.819Z,18.52
2022-12-23T18:14:28.307Z,20.95
2022-12-23T18:17:15.694Z,19.55
2022-12-23T18:19:51.750Z,25.40
2022-12-23T18:22:23.354Z,29.55
2022-12-23T18:24:58.846Z,25.38
2022-12-23T18:27:33.397Z,30.98
2022-12-23T18:30:03.888Z,22.58
2022-12-23T18:32:34.634Z,24.08
2022-12-23T18:35:03.043Z,34.47
2022-12-23T18:37:35.803Z,31.38
2022-12-23T18:40:13.398Z,23.63
2022-12-23T18:42:49.661Z,27.05
2022-12-23T18:45:20.471Z,24.38
2022-12-23T18:47:51.826Z,29.63
2022-12-23T18:50:20.131Z,24.38
2022-12-23T18:52:56.815Z,75.22
2022-12-23T18:55:29.169Z,29.92
2022-12-23T18:57:59.928Z,29.40
2022-12-23T19:00:37.150Z,28.67
2022-12-23T19:03:05.122Z,26.58
2022-12-23T19:05:33.251Z,21.27
2022-12-23T19:08:01.599Z,27.52
2022-12-23T19:10:35.235Z,20.38
2022-12-23T19:13:03.363Z,23.23
2022-12-23T19:15:33.879Z,28.13
2022-12-23T19:18:05.305Z,35.70
2022-12-23T19:20:38.503Z,19.08
2022-12-23T19:23:07.503Z,30.13
2022-12-23T19:25:57.179Z,32.97
2022-12-23T19:28:32.926Z,28.70
2022-12-23T19:31:01.922Z,24.65
2022-12-23T19:33:34.102Z,23.63
2022-12-23T19:36:19.103Z,25.02
2022-12-23T19:38:47.539Z,28.63
2022-12-23T19:41:16.725Z,25.40
2022-12-23T19:43:47.645Z,22.80
2022-12-23T19:46:20.057Z,24.52
2022-12-23T19:48:54.662Z,25.10
2022-12-23T19:51:22.630Z,28.80
2022-12-23T19:53:51.840Z,30.58
2022-12-23T19:56:26.162Z,31.95
2022-12-23T19:58:54.174Z,32.15
2022-12-23T20:01:27.777Z,27.10
2022-12-23T20:03:58.543Z,26.80
2022-12-23T20:06:34.624Z,29.85
2022-12-23T20:09:06.677Z,31.85
2022-12-23T20:11:39.468Z,33.40
2022-12-23T20:14:14.371Z,34.17
2022-12-23T20:16:51.850Z,26.13
2022-12-23T20:19:23.696Z,33.38
2022-12-23T20:21:52.941Z,34.33
2022-12-23T20:24:23.747Z,36.05
2022-12-23T20:27:04.040Z,34.85
2022-12-23T20:29:38.105Z,32.28
2022-12-23T20:32:16.132Z,28.05
2022-12-23T20:34:45.039Z,25.60
2022-12-23T20:37:16.425Z,30.25
2022-12-23T20:39:51.677Z,28.75
2022-12-23T20:42:20.421Z,30.98
2022-12-23T20:44:54.126Z,39.10
2022-12-23T20:47:27.923Z,24.88
2022-12-23T20:49:59.875Z,29.70
2022-12-23T20:52:38.009Z,28.25
2022-12-23T20:55:09.856Z,35.17
2022-12-23T20:57:45.773Z,39.60
2022-12-23T21:00:24.973Z,36.95
2022-12-23T21:03:20.047Z,38.30
2022-12-23T21:06:01.744Z,31.98
2022-12-23T21:08:47.241Z,39.58
2022-12-23T21:11:37.944Z,32.20
2022-12-23T21:14:18.474Z,43.45
2022-12-23T21:17:03.177Z,47.03
2022-12-23T21:19:47.423Z,41.88
2022-12-23T21:22:24.099Z,31.52
2022-12-23T21:25:04.454Z,38.33
2022-12-23T21:28:04.784Z,36.22
2022-12-23T21:30:47.847Z,35.20
2022-12-23T21:33:23.600Z,38.55
2022-12-23T21:35:59.821Z,40.38
2022-12-23T21:38:48.560Z,37.40
2022-12-23T21:41:37.760Z,29.83
2022-12-23T21:44:11.271Z,30.80
2022-12-23T21:47:02.580Z,38.13
2022-12-23T21:49:33.759Z,36.08
2022-12-23T21:52:08.070Z,44.05
2022-12-23T21:55:08.696Z,29.63
2022-12-23T21:57:37.293Z,26.60
2022-12-23T22:00:17.925Z,33.67
2022-12-23T22:02:49.998Z,37.60
2022-12-23T22:05:29.627Z,34.38
2022-12-23T22:08:05.894Z,26.13
2022-12-23T22:10:40.728Z,30.08
2022-12-23T22:13:11.773Z,29.70
2022-12-23T22:15:43.861Z,38.80
2022-12-23T22:18:24.911Z,32.60
2022-12-23T22:21:00.423Z,28.33
2022-12-23T22:23:35.838Z,31.73
2022-12-23T22:26:12.334Z,28.73
2022-12-23T22:28:47.540Z,34.92
2022-12-23T22:31:54.788Z,30.80
2022-12-23T22:37:54.962Z,37.58
2022-12-23T22:40:37.320Z,35.60
2022-12-23T22:43:46.934Z,29.73
2022-12-23T22:46:22.836Z,29.48
2022-12-23T22:49:06.535Z,32.65
2022-12-23T22:51:47.956Z,29.52
2022-12-23T22:54:29.545Z,43.03
2022-12-23T22:57:13.775Z,33.17
2022-12-23T22:59:58.421Z,38.10
2022-12-23T23:06:12.428Z,38.25
2022-12-23T23:14:08.060Z,39.33
2022-12-23T23:17:31.081Z,31.80
2022-12-23T23:20:11.864Z,37.00
2022-12-23T23:22:48.299Z,31.77
2022-12-23T23:25:25.892Z,32.22
2022-12-23T23:28:00.604Z,33.22
2022-12-23T23:30:42.478Z,32.05
2022-12-23T23:38:03.343Z,39.38
2022-12-23T23:41:42.392Z,35.28
2022-12-23T23:48:39.178Z,31.80
2022-12-23T23:51:57.522Z,32.95
2022-12-23T23:55:16.253Z,42.28
2022-12-23T23:58:24.871Z,31.13
